KC7FQB Weather Reports


Display with metric or nautical units.
time (UTC)temp
F
wind
direction
speed
MPH
gust
MPH
rain 1hr
in
rain 24hr
in
rain mn
in
humidity
%
barometer
mb
20220808191301 67 51 0.0 4.0 0.00 0.00 0.00 24 1032.5
20220808191026 106 228 3.0 6.0 0.00 0.00 0.00 37 1025.6
20220808190811 67 51 0.0 4.0 0.00 0.00 0.00 24 1032.5
20220808190519 105 214 2.0 5.0 0.00 0.00 0.00 37 1025.6
20220808190331 67 51 0.0 4.0 0.00 0.00 0.00 24 1032.5
20220808190028 105 232 3.0 8.0 0.00 0.00 0.00 37 1025.6
20220808185911 67 51 0.0 4.0 0.00 0.00 0.00 24 1032.5
20220808185521 105 180 3.0 5.0 0.00 0.00 0.00 37 1025.6
20220808185501 67 51 0.0 4.0 0.00 0.00 0.00 24 1032.5
20220808185032 103 107 1.0 3.0 0.00 0.00 0.00 38 1025.6
20220808184606 67 51 0.0 4.0 0.00 0.00 0.00 24 1032.5
20220808184524 102 104 2.0 4.0 0.00 0.00 0.00 39 1025.8
20220808184131 67 51 0.0 4.0 0.00 0.00 0.00 24 1032.5
20220808184016 103 98 1.0 4.0 0.00 0.00 0.00 38 1025.8
20220808183726 67 51 0.0 4.0 0.00 0.00 0.00 24 1032.5
20220808183526 102 140 1.0 3.0 0.00 0.00 0.00 39 1025.9
20220808183231 67 51 0.0 4.0 0.00 0.00 0.00 24 1032.5
20220808183018 102 93 2.0 3.0 0.00 0.00 0.00 39 1026.0
20220808182810 67 51 0.0 4.0 0.00 0.00 0.00 24 1032.5
20220808182523 100 112 2.0 5.0 0.00 0.00 0.00 41 1026.0
20220808182326 67 51 0.0 4.0 0.00 0.00 0.00 24 1032.5
20220808182021 101 119 2.0 5.0 0.00 0.00 0.00 40 1026.1
20220808181841 67 51 0.0 4.0 0.00 0.00 0.00 24 1032.5
20220808181519 101 104 1.0 2.0 0.00 0.00 0.00 40 1026.1
20220808181421 67 51 0.0 4.0 0.00 0.00 0.00 24 1032.5
20220808181017 103 82 2.0 4.0 0.00 0.00 0.00 38 1026.4
20220808180941 67 51 0.0 4.0 0.00 0.00 0.00 24 1032.5
20220808180516 104 214 0.0 1.0 0.00 0.00 0.00 37 1026.4
20220808180506 67 51 0.0 4.0 0.00 0.00 0.00 24 1032.5
20220808180106 67 51 0.0 4.0 0.00 0.00 0.00 24 1032.5
20220808180026 102 197 1.0 3.0 0.00 0.00 0.00 39 1026.4
20220808175611 67 51 0.0 4.0 0.00 0.00 0.00 24 1032.5
20220808175518 100 197 2.0 3.0 0.00 0.00 0.00 41 1026.4
20220808175206 67 51 0.0 4.0 0.00 0.00 0.00 24 1032.5
20220808175028 99 68 0.0 3.0 0.00 0.00 0.00 42 1026.4
20220808174726 67 51 0.0 4.0 0.00 0.00 0.00 24 1032.5
20220808174521 97 65 1.0 4.0 0.00 0.00 0.00 43 1026.5
20220808174246 67 51 0.0 4.0 0.00 0.00 0.00 24 1032.5
20220808174031 96 112 1.0 3.0 0.00 0.00 0.00 43 1026.5
20220808173831 67 51 0.0 4.0 0.00 0.00 0.00 24 1032.5
20220808173523 96 63 1.0 3.0 0.00 0.00 0.00 44 1026.6
20220808173346 67 51 0.0 4.0 0.00 0.00 0.00 24 1032.5
20220808173015 95 34 0.0 1.0 0.00 0.00 0.00 44 1026.6
20220808172936 67 51 0.0 4.0 0.00 0.00 0.00 24 1032.5
20220808172531 67 51 0.0 4.0 0.00 0.00 0.00 24 1032.5
20220808172527 95 126 1.0 3.0 0.00 0.00 0.00 46 1026.6
20220808172106 67 51 0.0 4.0 0.00 0.00 0.00 24 1032.5
20220808172019 94 116 1.0 3.0 0.00 0.00 0.00 46 1026.6
20220808171649 67 51 0.0 4.0 0.00 0.00 0.00 24 1032.5
20220808171528 94 115 1.0 4.0 0.00 0.00 0.00 46 1026.6
20220808171231 67 51 0.0 4.0 0.00 0.00 0.00 24 1032.5
20220808171021 93 115 1.0 4.0 0.00 0.00 0.00 46 1026.7
20220808170806 67 51 0.0 4.0 0.00 0.00 0.00 24 1032.5
20220808170531 94 151 1.0 4.0 0.00 0.00 0.00 46 1026.7
20220808170331 67 51 0.0 4.0 0.00 0.00 0.00 24 1032.5
20220808170023 94 135 0.0 1.0 0.00 0.00 0.00 46 1026.7
20220808165901 67 51 0.0 4.0 0.00 0.00 0.00 24 1032.5
20220808165533 93 293 0.0 2.0 0.00 0.00 0.00 48 1026.7
20220808165411 67 51 0.0 4.0 0.00 0.00 0.00 24 1032.5
20220808165025 93 121 1.0 3.0 0.00 0.00 0.00 48 1026.7
20220808164931 67 51 0.0 4.0 0.00 0.00 0.00 24 1032.5
20220808164518 93 133 1.0 3.0 0.00 0.00 0.00 47 1026.8
20220808164451 67 51 0.0 4.0 0.00 0.00 0.00 24 1032.5
20220808164046 67 51 0.0 4.0 0.00 0.00 0.00 24 1032.5
20220808164027 93 112 2.0 4.0 0.00 0.00 0.00 48 1026.8
20220808163551 67 51 0.0 4.0 0.00 0.00 0.00 24 1032.5
20220808163520 93 203 0.0 1.0 0.00 0.00 0.00 48 1026.9
20220808163056 67 51 0.0 4.0 0.00 0.00 0.00 24 1032.5
20220808163030 93 137 0.0 2.0 0.00 0.00 0.00 48 1026.9
20220808162644 67 51 0.0 4.0 0.00 0.00 0.00 24 1032.5
20220808162523 92 169 0.0 3.0 0.00 0.00 0.00 49 1026.9
20220808162218 67 51 0.0 4.0 0.00 0.00 0.00 24 1032.5
20220808162033 92 90 0.0 1.0 0.00 0.00 0.00 50 1026.9
20220808161721 67 51 0.0 4.0 0.00 0.00 0.00 24 1032.5
20220808161525 92 0.0 0.0 0.00 0.00 0.00 49 1026.9
20220808161316 67 51 0.0 4.0 0.00 0.00 0.00 24 1032.5
20220808161016 92 113 0.0 2.0 0.00 0.00 0.00 49 1027.0
20220808160906 67 51 0.0 4.0 0.00 0.00 0.00 24 1032.5
20220808160527 92 113 1.0 4.0 0.00 0.00 0.00 49 1027.0
20220808160406 67 51 0.0 4.0 0.00 0.00 0.00 24 1032.5
20220808160020 92 104 1.0 4.0 0.00 0.00 0.00 50 1027.0
20220808160001 67 51 0.0 4.0 0.00 0.00 0.00 24 1032.5
20220808155530 92 113 0.0 2.0 0.00 0.00 0.00 51 1027.0
20220808155506 67 51 0.0 4.0 0.00 0.00 0.00 24 1032.5
20220808155023 91 90 0.0 2.0 0.00 0.00 0.00 51 1027.0
20220808155011 67 51 0.0 4.0 0.00 0.00 0.00 24 1032.5
20220808154546 67 51 0.0 4.0 0.00 0.00 0.00 24 1032.5
20220808154525 90 113 0.0 3.0 0.00 0.00 0.00 51 1026.9
20220808154126 67 51 0.0 4.0 0.00 0.00 0.00 24 1032.5
20220808154024 90 98 1.0 4.0 0.00 0.00 0.00 52 1026.9
20220808153701 67 51 0.0 4.0 0.00 0.00 0.00 24 1032.5
20220808153516 90 95 1.0 3.0 0.00 0.00 0.00 51 1026.8
20220808153206 67 51 0.0 4.0 0.00 0.00 0.00 24 1032.5
20220808153022 90 122 1.0 3.0 0.00 0.00 0.00 52 1026.8
20220808152801 67 51 0.0 4.0 0.00 0.00 0.00 24 1032.5
20220808152518 90 113 1.0 3.0 0.00 0.00 0.00 52 1026.8
20220808152336 67 51 0.0 4.0 0.00 0.00 0.00 24 1032.5
20220808152016 90 95 1.0 3.0 0.00 0.00 0.00 53 1026.7
20220808151846 67 51 0.0 4.0 0.00 0.00 0.00 24 1032.5
20220808151521 89 119 1.0 3.0 0.00 0.00 0.00 53 1026.7
20220808151406 67 51 0.0 4.0 0.00 0.00 0.00 24 1032.5
20220808151032 89 107 1.0 3.0 0.00 0.00 0.00 54 1026.6
20220808150946 67 51 0.0 4.0 0.00 0.00 0.00 24 1032.5
20220808150523 89 112 1.0 3.0 0.00 0.00 0.00 54 1026.6
20220808150521 67 51 0.0 4.0 0.00 0.00 0.00 24 1032.5
20220808150021 67 51 0.0 4.0 0.00 0.00 0.00 24 1032.5
20220808150015 89 198 0.0 2.0 0.00 0.00 0.00 54 1026.5
20220808145601 67 51 0.0 4.0 0.00 0.00 0.00 24 1032.5
20220808145525 89 293 1.0 3.0 0.00 0.00 0.00 54 1026.5
20220808145121 67 51 0.0 4.0 0.00 0.00 0.00 24 1032.5
20220808145018 89 293 0.0 2.0 0.00 0.00 0.00 54 1026.5
20220808144646 67 51 0.0 4.0 0.00 0.00 0.00 24 1032.5
20220808144528 89 0 0.0 2.0 0.00 0.00 0.00 54 1026.5
20220808144216 67 51 0.0 4.0 0.00 0.00 0.00 24 1032.5
20220808144020 89 0.0 0.0 0.00 0.00 0.00 55 1026.5
20220808143741 67 51 0.0 4.0 0.00 0.00 0.00 24 1032.5
20220808143530 89 0.0 1.0 0.00 0.00 0.00 54 1026.4
20220808143326 67 51 0.0 4.0 0.00 0.00 0.00 24 1032.5
20220808143022 88 135 0.0 1.0 0.00 0.00 0.00 55 1026.4
20220808142841 67 51 0.0 4.0 0.00 0.00 0.00 24 1032.5
20220808142533 88 0.0 0.0 0.00 0.00 0.00 55 1026.4
20220808142416 67 51 0.0 4.0 0.00 0.00 0.00 24 1032.5
20220808142025 87 0.0 0.0 0.00 0.00 0.00 55 1026.4
20220808141926 67 51 0.0 4.0 0.00 0.00 0.00 24 1032.5
20220808141516 87 108 0.0 2.0 0.00 0.00 0.00 54 1026.4
20220808141436 67 51 0.0 4.0 0.00 0.00 0.00 24 1032.5
20220808141027 87 118 0.0 2.0 0.00 0.00 0.00 56 1026.4
20220808140541 67 51 0.0 4.0 0.00 0.00 0.00 24 1032.5
20220808140521 86 0.0 0.0 0.00 0.00 0.00 58 1026.4
20220808140101 67 51 0.0 4.0 0.00 0.00 0.00 24 1032.5
20220808140029 86 0.0 0.0 0.00 0.00 0.00 59 1026.4
20220808135651 67 51 0.0 4.0 0.00 0.00 0.00 24 1032.5
20220808135521 86 0.0 0.0 0.00 0.00 0.00 61 1026.4
20220808135211 67 51 0.0 4.0 0.00 0.00 0.00 24 1032.5
20220808135032 86 0.0 0.0 0.00 0.00 0.00 62 1026.4
20220808134721 67 51 0.0 4.0 0.00 0.00 0.00 24 1032.5
20220808134525 86 0.0 0.0 0.00 0.00 0.00 61 1026.3
20220808134236 67 51 0.0 4.0 0.00 0.00 0.00 24 1032.5
20220808134016 85 0.0 1.0 0.00 0.00 0.00 62 1026.3
20220808133751 67 51 0.0 4.0 0.00 0.00 0.00 24 1032.5
20220808133526 85 0.0 0.0 0.00 0.00 0.00 63 1026.1
20220808133301 67 51 0.0 4.0 0.00 0.00 0.00 24 1032.5
20220808133018 85 0.0 0.0 0.00 0.00 0.00 63 1026.1
20220808132856 67 51 0.0 4.0 0.00 0.00 0.00 24 1032.5
20220808132528 85 0.0 0.0 0.00 0.00 0.00 64 1026.1
20220808132426 67 51 0.0 4.0 0.00 0.00 0.00 24 1032.5
20220808132020 85 0.0 0.0 0.00 0.00 0.00 63 1026.0
20220808132011 67 51 0.0 4.0 0.00 0.00 0.00 24 1032.5
20220808131601 67 51 0.0 4.0 0.00 0.00 0.00 24 1032.5
20220808131530 85 0.0 0.0 0.00 0.00 0.00 63 1026.0
20220808131121 67 51 0.0 4.0 0.00 0.00 0.00 24 1032.5
20220808131022 85 0.0 0.0 0.00 0.00 0.00 63 1025.8
20220808130646 67 51 0.0 4.0 0.00 0.00 0.00 24 1032.5
20220808130527 85 0.0 0.0 0.00 0.00 0.00 63 1025.8
20220808130231 67 51 0.0 4.0 0.00 0.00 0.00 24 1032.5
20220808130025 85 0.0 0.0 0.00 0.00 0.00 64 1025.8
20220808125811 67 51 0.0 4.0 0.00 0.00 0.00 24 1032.5
20220808125517 85 0.0 0.0 0.00 0.00 0.00 64 1025.8
20220808125311 67 51 0.0 4.0 0.00 0.00 0.00 24 1032.5
20220808125021 85 0.0 0.0 0.00 0.00 0.00 64 1025.8
20220808124821 67 51 0.0 4.0 0.00 0.00 0.00 24 1032.5
20220808124520 85 0.0 0.0 0.00 0.00 0.00 64 1025.6
20220808124331 67 51 0.0 4.0 0.00 0.00 0.00 24 1032.5
20220808124017 85 0.0 0.0 0.00 0.00 0.00 64 1025.6
20220808123841 67 51 0.0 4.0 0.00 0.00 0.00 24 1032.5
20220808123516 85 0.0 0.0 0.00 0.00 0.00 62 1025.6
20220808123431 67 51 0.0 4.0 0.00 0.00 0.00 24 1032.5
20220808123032 85 0.0 0.0 0.00 0.00 0.00 62 1025.6
20220808122931 67 51 0.0 4.0 0.00 0.00 0.00 24 1032.5
20220808122524 86 0.0 0.0 0.00 0.00 0.00 61 1025.6
20220808122441 67 51 0.0 4.0 0.00 0.00 0.00 24 1032.5
20220808122016 86 0.0 0.0 0.00 0.00 0.00 60 1025.6
20220808121546 67 51 0.0 4.0 0.00 0.00 0.00 24 1032.5
20220808121526 86 0.0 0.0 0.00 0.00 0.00 59 1025.6
20220808121146 67 51 0.0 4.0 0.00 0.00 0.00 24 1032.5
20220808121020 86 0.0 0.0 0.00 0.00 0.00 60 1025.6
20220808120746 67 51 0.0 4.0 0.00 0.00 0.00 24 1032.5
20220808120529 86 0.0 0.0 0.00 0.00 0.00 62 1025.6
20220808120256 67 51 0.0 4.0 0.00 0.00 0.00 24 1032.5
20220808120021 86 0.0 0.0 0.00 0.00 0.00 61 1025.3
20220808115826 67 51 0.0 4.0 0.00 0.00 0.00 24 1032.5
20220808115533 86 0.0 0.0 0.00 0.00 0.00 57 1025.3
20220808115346 67 51 0.0 4.0 0.00 0.00 0.00 24 1032.5
20220808115023 85 0.0 0.0 0.00 0.00 0.00 54 1025.2
20220808114921 67 51 0.0 4.0 0.00 0.00 0.00 24 1032.5
20220808114515 85 0.0 0.0 0.00 0.00 0.00 53 1025.1
20220808114421 67 51 0.0 4.0 0.00 0.00 0.00 24 1032.5
20220808114026 85 0.0 0.0 0.00 0.00 0.00 53 1025.1
20220808114011 67 51 0.0 4.0 0.00 0.00 0.00 24 1032.5
20220808113606 67 51 0.0 4.0 0.00 0.00 0.00 24 1032.5
20220808113518 85 0.0 0.0 0.00 0.00 0.00 53 1025.0
20220808113106 67 51 0.0 4.0 0.00 0.00 0.00 24 1032.5
20220808113028 86 0.0 0.0 0.00 0.00 0.00 54 1024.9
20220808112631 67 51 0.0 4.0 0.00 0.00 0.00 24 1032.5
20220808112522 86 0.0 0.0 0.00 0.00 0.00 54 1025.0
20220808112206 67 51 0.0 4.0 0.00 0.00 0.00 24 1032.5
20220808112030 86 0.0 0.0 0.00 0.00 0.00 54 1025.1
20220808111756 67 51 0.0 4.0 0.00 0.00 0.00 24 1032.5
20220808111523 86 0.0 0.0 0.00 0.00 0.00 53 1025.1
20220808111321 67 51 0.0 4.0 0.00 0.00 0.00 24 1032.5
20220808111033 86 0.0 0.0 0.00 0.00 0.00 53 1025.1
20220808110831 67 51 0.0 4.0 0.00 0.00 0.00 24 1032.5
20220808110526 86 0.0 0.0 0.00 0.00 0.00 53 1025.1
20220808110331 67 51 0.0 4.0 0.00 0.00 0.00 24 1032.5
20220808110018 86 0.0 0.0 0.00 0.00 0.00 52 1025.0
20220808105911 67 51 0.0 4.0 0.00 0.00 0.00 24 1032.5
20220808105528 86 0.0 0.0 0.00 0.00 0.00 52 1024.9
20220808105431 67 51 0.0 4.0 0.00 0.00 0.00 24 1032.5
20220808105020 86 0.0 0.0 0.00 0.00 0.00 53 1025.0
20220808105001 67 51 0.0 4.0 0.00 0.00 0.00 24 1032.5
20220808104531 67 51 0.0 4.0 0.00 0.00 0.00 24 1032.5
20220808104529 86 0.0 0.0 0.00 0.00 0.00 53 1025.1
20220808104106 67 51 0.0 4.0 0.00 0.00 0.00 24 1032.5
20220808104022 86 0.0 0.0 0.00 0.00 0.00 53 1025.1
20220808103616 67 51 0.0 4.0 0.00 0.00 0.00 24 1032.5
20220808103532 86 0.0 0.0 0.00 0.00 0.00 53 1025.1
20220808103156 67 51 0.0 4.0 0.00 0.00 0.00 24 1032.5
20220808103024 86 0.0 0.0 0.00 0.00 0.00 54 1025.1
20220808102741 67 51 0.0 4.0 0.00 0.00 0.00 24 1032.5
20220808102516 86 0.0 0.0 0.00 0.00 0.00 54 1025.0
20220808102331 67 51 0.0 4.0 0.00 0.00 0.00 24 1032.5
20220808102027 86 0.0 0.0 0.00 0.00 0.00 54 1024.9
20220808101836 67 51 0.0 4.0 0.00 0.00 0.00 24 1032.5
20220808101519 86 0.0 0.0 0.00 0.00 0.00 54 1024.9
20220808101356 67 51 0.0 4.0 0.00 0.00 0.00 24 1032.5
20220808101023 86 0.0 0.0 0.00 0.00 0.00 55 1025.1
20220808100901 67 51 0.0 4.0 0.00 0.00 0.00 24 1032.5
20220808100522 86 0.0 0.0 0.00 0.00 0.00 55 1025.1
20220808100416 67 51 0.0 4.0 0.00 0.00 0.00 24 1032.5
20220808100001 67 51 0.0 4.0 0.00 0.00 0.00 24 1032.5
20220808095536 67 51 0.0 4.0 0.00 0.00 0.00 24 1032.5
20220808095518 86 0.0 0.0 0.00 0.00 0.00 55 1024.9
20220808095116 67 51 0.0 4.0 0.00 0.00 0.00 24 1032.5
20220808095016 86 0.0 0.0 0.00 0.00 0.00 56 1024.9
20220808094626 67 51 0.0 4.0 0.00 0.00 0.00 24 1032.5
20220808094526 86 0.0 0.0 0.00 0.00 0.00 56 1024.8
20220808094201 67 51 0.0 4.0 0.00 0.00 0.00 24 1032.5
20220808094018 86 0.0 0.0 0.00 0.00 0.00 59 1024.8
20220808093746 67 51 0.0 4.0 0.00 0.00 0.00 24 1032.5
20220808093530 86 0.0 0.0 0.00 0.00 0.00 60 1024.7
20220808093315 67 51 0.0 4.0 0.00 0.00 0.00 24 1032.5
20220808093020 86 0.0 0.0 0.00 0.00 0.00 56 1024.7
20220808092841 67 51 0.0 4.0 0.00 0.00 0.00 24 1032.5
20220808092531 87 0.0 0.0 0.00 0.00 0.00 54 1024.7
20220808092411 67 51 0.0 4.0 0.00 0.00 0.00 24 1032.5
20220808092023 87 0.0 0.0 0.00 0.00 0.00 55 1024.7
20220808091931 67 51 0.0 4.0 0.00 0.00 0.00 24 1032.5
20220808091516 87 0.0 0.0 0.00 0.00 0.00 54 1024.7
20220808091431 67 51 0.0 4.0 0.00 0.00 0.00 24 1032.5
20220808091026 87 0.0 0.0 0.00 0.00 0.00 55 1024.5
20220808091016 67 51 0.0 4.0 0.00 0.00 0.00 24 1032.5
20220808090541 67 51 0.0 4.0 0.00 0.00 0.00 24 1032.5
20220808090518 87 0.0 0.0 0.00 0.00 0.00 54 1024.5
20220808090135 67 51 0.0 4.0 0.00 0.00 0.00 24 1032.5
20220808090028 87 0.0 0.0 0.00 0.00 0.00 55 1024.5
20220808085736 67 51 0.0 4.0 0.00 0.00 0.00 24 1032.5
20220808085520 87 0.0 0.0 0.00 0.00 0.00 55 1024.5
20220808085236 67 51 0.0 4.0 0.00 0.00 0.00 24 1032.5
20220808085032 87 0.0 0.0 0.00 0.00 0.00 55 1024.5
20220808084746 67 51 0.0 4.0 0.00 0.00 0.00 24 1032.5
20220808084523 88 0.0 0.0 0.00 0.00 0.00 54 1024.5
20220808084306 67 51 0.0 4.0 0.00 0.00 0.00 24 1032.5
20220808084016 88 0.0 0.0 0.00 0.00 0.00 54 1024.5
20220808083831 67 51 0.0 4.0 0.00 0.00 0.00 24 1032.5
20220808083526 87 0.0 0.0 0.00 0.00 0.00 54 1024.7
20220808083426 67 51 0.0 4.0 0.00 0.00 0.00 24 1032.5
20220808083018 87 0.0 0.0 0.00 0.00 0.00 55 1024.7
20220808082936 67 51 0.0 4.0 0.00 0.00 0.00 24 1032.5
20220808082536 67 51 0.0 4.0 0.00 0.00 0.00 24 1032.5
20220808082528 87 0.0 0.0 0.00 0.00 0.00 55 1024.8
20220808082116 67 51 0.0 4.0 0.00 0.00 0.00 24 1032.5
20220808082020 87 0.0 1.0 0.00 0.00 0.00 55 1024.9
20220808081616 67 51 0.0 4.0 0.00 0.00 0.00 24 1032.5
20220808081531 87 0.0 0.0 0.00 0.00 0.00 56 1024.9
20220808081206 67 51 0.0 4.0 0.00 0.00 0.00 24 1032.5
20220808081022 87 0.0 0.0 0.00 0.00 0.00 56 1024.8
20220808080746 67 51 0.0 4.0 0.00 0.00 0.00 24 1032.5
20220808080533 87 0.0 0.0 0.00 0.00 0.00 55 1024.8
20220808080306 67 51 0.0 4.0 0.00 0.00 0.00 24 1032.5
20220808080025 87 0.0 0.0 0.00 0.00 0.00 56 1024.9
20220808075846 67 51 0.0 4.0 0.00 0.00 0.00 24 1032.5
20220808075518 87 0.0 0.0 0.00 0.00 0.00 56 1024.9
20220808075411 67 51 0.0 4.0 0.00 0.00 0.00 24 1032.5
20220808075027 87 0.0 0.0 0.00 0.00 0.00 55 1025.0
20220808074958 67 51 0.0 4.0 0.00 0.00 0.00 24 1032.5
20220808074551 67 51 0.0 4.0 0.00 0.00 0.00 24 1032.5
20220808074520 87 0.0 0.0 0.00 0.00 0.00 55 1025.1
20220808074056 67 51 0.0 4.0 0.00 0.00 0.00 24 1032.5
20220808074029 87 0.0 0.0 0.00 0.00 0.00 55 1025.1
20220808073606 67 51 0.0 4.0 0.00 0.00 0.00 24 1032.5
20220808073523 87 0.0 0.0 0.00 0.00 0.00 56 1025.0
20220808073150 67 51 0.0 4.0 0.00 0.00 0.00 24 1032.5
20220808073027 87 0.0 0.0 0.00 0.00 0.00 56 1024.9
20220808072720 67 51 0.0 4.0 0.00 0.00 0.00 24 1032.5
20220808072524 87 0.0 0.0 0.00 0.00 0.00 56 1024.9
20220808072246 67 51 0.0 4.0 0.00 0.00 0.00 24 1032.5
20220808072017 87 225 0.0 2.0 0.00 0.00 0.00 56 1024.9
20220808071826 67 51 0.0 4.0 0.00 0.00 0.00 24 1032.5
20220808071522 87 0.0 0.0 0.00 0.00 0.00 56 1024.9
20220808071336 67 51 0.0 4.0 0.00 0.00 0.00 24 1032.5
20220808071019 87 0.0 0.0 0.00 0.00 0.00 56 1024.9
20220808070841 67 51 0.0 4.0 0.00 0.00 0.00 24 1032.5
20220808070518 87 0.0 0.0 0.00 0.00 0.00 56 1024.9
20220808070441 67 51 0.0 4.0 0.00 0.00 0.00 24 1032.5
20220808070016 87 0.0 0.0 0.00 0.00 0.00 56 1025.0
20220808065946 67 51 0.0 4.0 0.00 0.00 0.00 24 1032.5
20220808065532 87 0.0 0.0 0.00 0.00 0.00 56 1025.1
20220808065456 67 51 0.0 4.0 0.00 0.00 0.00 24 1032.5
20220808065024 87 0.0 0.0 0.00 0.00 0.00 56 1025.1
20220808065007 67 51 0.0 4.0 0.00 0.00 0.00 24 1032.5
20220808064536 67 51 0.0 4.0 0.00 0.00 0.00 24 1032.5
20220808064517 87 0.0 0.0 0.00 0.00 0.00 56 1025.1
20220808064059 67 51 0.0 4.0 0.00 0.00 0.00 24 1032.5
20220808064028 87 0.0 0.0 0.00 0.00 0.00 56 1025.1
20220808063656 67 51 0.0 4.0 0.00 0.00 0.00 24 1032.5
20220808063519 87 0.0 0.0 0.00 0.00 0.00 57 1025.1
20220808063226 67 51 0.0 4.0 0.00 0.00 0.00 24 1032.5
20220808063030 87 0.0 0.0 0.00 0.00 0.00 58 1025.1
20220808062819 67 51 0.0 4.0 0.00 0.00 0.00 24 1032.5
20220808062522 87 0.0 0.0 0.00 0.00 0.00 59 1025.1
20220808062406 67 51 0.0 4.0 0.00 0.00 0.00 24 1032.5
20220808062031 87 0.0 0.0 0.00 0.00 0.00 60 1025.1
20220808062006 67 51 0.0 4.0 0.00 0.00 0.00 24 1032.5
20220808061525 87 203 0.0 1.0 0.00 0.00 0.00 60 1025.1
20220808061506 67 51 0.0 4.0 0.00 0.00 0.00 24 1032.5
20220808061016 87 0.0 0.0 0.00 0.00 0.00 58 1024.9
20220808061011 67 51 0.0 4.0 0.00 0.00 0.00 24 1032.5
20220808060536 67 51 0.0 4.0 0.00 0.00 0.00 24 1032.5
20220808060526 86 248 0.0 2.0 0.00 0.00 0.00 58 1024.9
20220808060101 67 51 0.0 4.0 0.00 0.00 0.00 24 1032.5
20220808060019 86 255 1.0 4.0 0.00 0.00 0.00 59 1025.0
20220808055621 67 51 0.0 4.0 0.00 0.00 0.00 24 1032.5
20220808055530 86 225 0.0 2.0 0.00 0.00 0.00 59 1025.1
20220808055157 67 51 0.0 4.0 0.00 0.00 0.00 24 1032.5
20220808055021 86 242 1.0 3.0 0.00 0.00 0.00 59 1025.1
20220808054641 67 51 0.0 4.0 0.00 0.00 0.00 24 1032.5
20220808054531 87 213 1.0 3.0 0.00 0.00 0.00 59 1025.1
20220808054144 67 51 0.0 4.0 0.00 0.00 0.00 24 1032.5
20220808054025 87 225 1.0 3.0 0.00 0.00 0.00 59 1025.1
20220808053721 67 51 0.0 4.0 0.00 0.00 0.00 24 1032.5
20220808053515 87 203 0.0 2.0 0.00 0.00 0.00 59 1025.1
20220808053226 67 51 0.0 4.0 0.00 0.00 0.00 24 1032.5
20220808053026 87 251 1.0 3.0 0.00 0.00 0.00 59 1025.1
20220808052806 67 51 0.0 4.0 0.00 0.00 0.00 24 1032.5
20220808052519 87 203 1.0 3.0 0.00 0.00 0.00 58 1025.1
20220808052356 67 51 0.0 4.0 0.00 0.00 0.00 24 1032.5
20220808052029 87 0.0 0.0 0.00 0.00 0.00 57 1025.1
20220808051906 67 51 0.0 4.0 0.00 0.00 0.00 24 1032.5
20220808051522 87 0.0 0.0 0.00 0.00 0.00 57 1025.1
20220808051501 67 51 0.0 4.0 0.00 0.00 0.00 24 1032.5
20220808051030 87 225 2.0 4.0 0.00 0.00 0.00 57 1025.1
20220808051011 67 51 0.0 4.0 0.00 0.00 0.00 24 1032.5
20220808050526 67 51 0.0 4.0 0.00 0.00 0.00 24 1032.5
20220808050523 87 231 2.0 4.0 0.00 0.00 0.00 57 1025.1
20220808050106 67 51 0.0 4.0 0.00 0.00 0.00 24 1032.5
20220808050016 87 243 0.0 2.0 0.00 0.00 0.00 56 1025.0
20220808045639 67 51 0.0 4.0 0.00 0.00 0.00 24 1032.5
20220808045525 88 0.0 0.0 0.00 0.00 0.00 56 1024.9
20220808045156 67 51 0.0 4.0 0.00 0.00 0.00 24 1032.5
20220808045018 88 0.0 0.0 0.00 0.00 0.00 56 1025.0
20220808044742 67 51 0.0 4.0 0.00 0.00 0.00 24 1032.5
20220808044528 88 0.0 0.0 0.00 0.00 0.00 54 1025.1
20220808044256 67 51 0.0 4.0 0.00 0.00 0.00 24 1032.5
20220808044020 88 0.0 0.0 0.00 0.00 0.00 54 1025.1
20220808043756 67 51 0.0 4.0 0.00 0.00 0.00 24 1032.5
20220808043524 88 0.0 0.0 0.00 0.00 0.00 54 1025.1
20220808043341 67 51 0.0 4.0 0.00 0.00 0.00 24 1032.5
20220808043023 88 0.0 2.0 0.00 0.00 0.00 53 1025.1
20220808042906 67 51 0.0 4.0 0.00 0.00 0.00 24 1032.5
20220808042521 88 218 0.0 2.0 0.00 0.00 0.00 53 1025.1
20220808042458 67 51 0.0 4.0 0.00 0.00 0.00 24 1032.5
20220808042046 67 51 0.0 4.0 0.00 0.00 0.00 24 1032.5
20220808042019 89 148 1.0 3.0 0.00 0.00 0.00 52 1025.1
20220808041551 67 51 0.0 4.0 0.00 0.00 0.00 24 1032.5
20220808041518 89 146 0.0 2.0 0.00 0.00 0.00 50 1025.1
20220808041056 67 51 0.0 4.0 0.00 0.00 0.00 24 1032.5
20220808041015 90 180 0.0 2.0 0.00 0.00 0.00 48 1025.1
20220808040611 67 51 0.0 4.0 0.00 0.00 0.00 24 1032.5
20220808040520 90 61 1.0 4.0 0.00 0.00 0.00 48 1025.1
20220808040151 67 51 0.0 4.0 0.00 0.00 0.00 24 1032.5
20220808040030 90 34 1.0 4.0 0.00 0.00 0.00 48 1024.9
20220808035726 67 51 0.0 4.0 0.00 0.00 0.00 24 1032.5
20220808035522 89 75 1.0 4.0 0.00 0.00 0.00 48 1024.7
20220808035242 67 51 0.0 4.0 0.00 0.00 0.00 24 1032.5
20220808035034 89 115 1.0 3.0 0.00 0.00 0.00 49 1024.7
20220808034842 67 51 0.0 4.0 0.00 0.00 0.00 24 1032.5
20220808034525 89 105 1.0 4.0 0.00 0.00 0.00 50 1024.5
20220808034426 67 51 0.0 4.0 0.00 0.00 0.00 24 1032.5
20220808034026 67 51 0.0 4.0 0.00 0.00 0.00 24 1032.5
20220808034017 88 95 1.0 2.0 0.00 0.00 0.00 51 1024.5
20220808033621 67 51 0.0 4.0 0.00 0.00 0.00 24 1032.5
20220808033527 87 27 3.0 7.0 0.00 0.00 0.00 52 1025.1
20220808033126 67 51 0.0 4.0 0.00 0.00 0.00 24 1032.5
20220808033019 86 233 5.0 8.0 0.00 0.00 0.00 52 1025.1
20220808032635 67 51 0.0 4.0 0.00 0.00 0.00 24 1032.5
20220808032530 87 109 4.0 7.0 0.00 0.00 0.00 53 1025.1
20220808032136 67 51 0.0 4.0 0.00 0.00 0.00 24 1032.5
20220808032023 87 200 7.0 12.0 0.00 0.00 0.00 56 1025.1
20220808031701 67 51 0.0 4.0 0.00 0.00 0.00 24 1032.5
20220808031532 87 155 6.0 9.0 0.00 0.00 0.00 57 1025.1
20220808031251 67 51 0.0 4.0 0.00 0.00 0.00 24 1032.5
20220808031024 89 211 7.0 13.0 0.00 0.00 0.00 55 1024.2
20220808030801 67 51 0.0 4.0 0.00 0.00 0.00 24 1032.5
20220808030517 90 191 5.0 8.0 0.00 0.00 0.00 52 1024.2
20220808030356 67 51 0.0 4.0 0.00 0.00 0.00 24 1032.5
20220808030027 92 194 5.0 9.0 0.00 0.00 0.00 49 1023.8
20220808025931 67 51 0.0 4.0 0.00 0.00 0.00 24 1032.5
20220808025520 91 180 4.0 6.0 0.00 0.00 0.00 51 1023.5
20220808025511 67 51 0.0 4.0 0.00 0.00 0.00 24 1032.5
20220808025102 67 51 0.0 4.0 0.00 0.00 0.00 24 1032.5
20220808025029 91 114 5.0 10.0 0.00 0.00 0.00 53 1023.4
20220808024616 67 51 0.0 4.0 0.00 0.00 0.00 24 1032.5
20220808024522 92 34 6.0 9.0 0.00 0.00 0.00 50 1023.2
20220808024126 67 51 0.0 4.0 0.00 0.00 0.00 24 1032.5
20220808024031 94 57 6.0 12.0 0.00 0.00 0.00 47 1023.2
20220808023652 67 51 0.0 4.0 0.00 0.00 0.00 24 1032.5
20220808023524 95 76 4.0 7.0 0.00 0.00 0.00 44 1023.1
20220808023235 67 51 0.0 4.0 0.00 0.00 0.00 24 1032.5
20220808023016 96 347 4.0 7.0 0.00 0.00 0.00 44 1023.0
20220808022736 67 51 0.0 4.0 0.00 0.00 0.00 24 1032.5
20220808022528 96 22 3.0 6.0 0.00 0.00 0.00 44 1023.0
20220808022316 67 51 0.0 4.0 0.00 0.00 0.00 24 1032.5
20220808022018 96 353 4.0 7.0 0.00 0.00 0.00 43 1023.0
20220808021816 67 51 0.0 4.0 0.00 0.00 0.00 24 1032.5
20220808021529 97 14 5.0 9.0 0.00 0.00 0.00 42 1023.0
20220808021401 67 51 0.0 4.0 0.00 0.00 0.00 24 1032.5
20220808021021 99 347 6.0 10.0 0.00 0.00 0.00 39 1022.3
20220808020936 67 51 0.0 4.0 0.00 0.00 0.00 24 1032.5
20220808020531 100 187 2.0 5.0 0.00 0.00 0.00 39 1022.3
20220808020529 67 51 0.0 4.0 0.00 0.00 0.00 24 1032.5
20220808020056 67 51 0.0 4.0 0.00 0.00 0.00 24 1032.5
20220808020024 100 210 2.0 4.0 0.00 0.00 0.00 39 1022.2
20220808015631 67 51 0.0 4.0 0.00 0.00 0.00 24 1032.5
20220808015517 100 133 2.0 4.0 0.00 0.00 0.00 39 1022.1
20220808015136 67 51 0.0 4.0 0.00 0.00 0.00 24 1032.5
20220808015028 101 174 2.0 4.0 0.00 0.00 0.00 38 1022.1
20220808014710 67 51 0.0 4.0 0.00 0.00 0.00 24 1032.5
20220808014518 102 142 2.0 5.0 0.00 0.00 0.00 38 1021.9
20220808014251 67 51 0.0 4.0 0.00 0.00 0.00 24 1032.5
20220808014023 102 170 1.0 3.0 0.00 0.00 0.00 37 1021.9
20220808013756 67 51 0.0 4.0 0.00 0.00 0.00 24 1032.5
20220808013521 103 187 1.0 5.0 0.00 0.00 0.00 36 1021.7
20220808013311 67 51 0.0 4.0 0.00 0.00 0.00 24 1032.5
20220808013019 104 200 3.0 5.0 0.00 0.00 0.00 35 1021.6
20220808012911 67 51 0.0 4.0 0.00 0.00 0.00 24 1032.5
20220808012517 103 221 2.0 4.0 0.00 0.00 0.00 37 1021.5
20220808012431 67 51 0.0 4.0 0.00 0.00 0.00 24 1032.5
20220808012015 104 163 2.0 4.0 0.00 0.00 0.00 36 1021.4
20220808012002 67 51 0.0 4.0 0.00 0.00 0.00 24 1032.5
20220808011601 67 51 0.0 4.0 0.00 0.00 0.00 24 1032.5
20220808011526 105 196 3.0 6.0 0.00 0.00 0.00 35 1021.4
20220808011101 67 51 0.0 4.0 0.00 0.00 0.00 24 1032.5
20220808011018 105 190 3.0 7.0 0.00 0.00 0.00 35 1021.4
20220808010636 67 51 0.0 4.0 0.00 0.00 0.00 24 1032.5
20220808010528 107 208 5.0 7.0 0.00 0.00 0.00 33 1021.4
20220808010156 67 51 0.0 4.0 0.00 0.00 0.00 24 1032.5
20220808010021 107 191 2.0 5.0 0.00 0.00 0.00 33 1021.4
20220808005751 67 51 0.0 4.0 0.00 0.00 0.00 24 1032.5
20220808005531 107 202 3.0 7.0 0.00 0.00 0.00 32 1021.4
20220808005341 67 51 0.0 4.0 0.00 0.00 0.00 24 1032.5
20220808005023 107 181 2.0 5.0 0.00 0.00 0.00 32 1021.5
20220808004901 67 51 0.0 4.0 0.00 0.00 0.00 24 1032.5
20220808004516 109 208 4.0 8.0 0.00 0.00 0.00 31 1021.6
20220808004441 67 51 0.0 4.0 0.00 0.00 0.00 24 1032.5
20220808004026 107 205 3.0 7.0 0.00 0.00 0.00 32 1021.6
20220808003946 67 51 0.0 4.0 0.00 0.00 0.00 24 1032.5
20220808003518 107 72 1.0 3.0 0.00 0.00 0.00 32 1021.5
20220808003501 67 51 0.0 4.0 0.00 0.00 0.00 24 1032.5
20220808003036 67 51 0.0 4.0 0.00 0.00 0.00 24 1032.5
20220808003029 108 189 2.0 3.0 0.00 0.00 0.00 32 1021.5
20220808002551 67 51 0.0 4.0 0.00 0.00 0.00 24 1032.5
20220808002522 108 206 2.0 4.0 0.00 0.00 0.00 31 1021.5
20220808002126 67 51 0.0 4.0 0.00 0.00 0.00 24 1032.5
20220808002031 108 252 3.0 6.0 0.00 0.00 0.00 32 1021.5
20220808001721 67 51 0.0 4.0 0.00 0.00 0.00 24 1032.5
20220808001525 107 122 3.0 6.0 0.00 0.00 0.00 33 1021.5
20220808001242 67 51 0.0 4.0 0.00 0.00 0.00 24 1032.5
20220808001016 107 169 2.0 6.0 0.00 0.00 0.00 32 1021.5
20220808000841 67 51 0.0 4.0 0.00 0.00 0.00 24 1032.5
20220808000526 110 186 2.0 6.0 0.00 0.00 0.00 31 1021.5
20220808000346 67 51 0.0 4.0 0.00 0.00 0.00 24 1032.5
20220808000018 108 221 2.0 6.0 0.00 0.00 0.00 31 1021.6
20220807235926 67 51 0.0 4.0 0.00 0.00 0.00 24 1032.5
20220807235528 108 207 3.0 6.0 0.00 0.00 0.00 31 1021.7
20220807235446 67 51 0.0 4.0 0.00 0.00 0.00 24 1032.5
20220807235026 67 51 0.0 4.0 0.00 0.00 0.00 24 1032.5
20220807235020 106 211 2.0 4.0 0.00 0.00 0.00 33 1021.7
20220807234546 67 51 0.0 4.0 0.00 0.00 0.00 24 1032.5
20220807234531 108 123 2.0 4.0 0.00 0.00 0.00 32 1021.8
20220807234141 67 51 0.0 4.0 0.00 0.00 0.00 24 1032.5
20220807234024 109 270 1.0 3.0 0.00 0.00 0.00 31 1021.8
20220807233736 67 51 0.0 4.0 0.00 0.00 0.00 24 1032.5
20220807233516 109 216 3.0 6.0 0.00 0.00 0.00 30 1022.0
20220807233241 67 51 0.0 4.0 0.00 0.00 0.00 24 1032.5
20220807233025 110 213 3.0 5.0 0.00 0.00 0.00 30 1022.0
20220807232826 67 51 0.0 4.0 0.00 0.00 0.00 24 1032.5
20220807232517 109 139 3.0 6.0 0.00 0.00 0.00 31 1022.0
20220807232402 67 51 0.0 4.0 0.00 0.00 0.00 24 1032.5
20220807232028 110 204 3.0 4.0 0.00 0.00 0.00 30 1022.0
20220807231921 67 51 0.0 4.0 0.00 0.00 0.00 24 1032.5
20220807231520 111 233 4.0 7.0 0.00 0.00 0.00 30 1022.0
20220807231446 67 51 0.0 4.0 0.00 0.00 0.00 24 1032.5
20220807231041 67 51 0.0 4.0 0.00 0.00 0.00 24 1032.5
20220807231030 109 199 2.0 5.0 0.00 0.00 0.00 31 1022.2
20220807230631 67 51 0.0 4.0 0.00 0.00 0.00 24 1032.5
20220807230523 107 155 2.0 7.0 0.00 0.00 0.00 33 1022.2
20220807230156 67 51 0.0 4.0 0.00 0.00 0.00 24 1032.5
20220807230027 109 147 2.0 4.0 0.00 0.00 0.00 31 1022.2
20220807225751 67 51 0.0 4.0 0.00 0.00 0.00 24 1032.5
20220807225525 110 211 4.0 7.0 0.00 0.00 0.00 30 1022.2
20220807225341 67 51 0.0 4.0 0.00 0.00 0.00 24 1032.5
20220807225018 108 151 3.0 6.0 0.00 0.00 0.00 32 1022.2
20220807224901 67 51 0.0 4.0 0.00 0.00 0.00 24 1032.5
20220807224523 107 195 2.0 7.0 0.00 0.00 0.00 33 1022.5
20220807224421 67 51 0.0 4.0 0.00 0.00 0.00 24 1032.5
20220807224020 108 158 2.0 4.0 0.00 0.00 0.00 32 1022.5
20220807223936 67 51 0.0 4.0 0.00 0.00 0.00 24 1032.5
20220807223526 67 51 0.0 4.0 0.00 0.00 0.00 24 1032.5
20220807223518 108 172 3.0 5.0 0.00 0.00 0.00 32 1022.5
20220807223036 67 51 0.0 4.0 0.00 0.00 0.00 24 1032.5
20220807223016 108 193 2.0 5.0 0.00 0.00 0.00 32 1022.5
20220807222546 67 51 0.0 4.0 0.00 0.00 0.00 24 1032.5
20220807222532 108 225 3.0 8.0 0.00 0.00 0.00 32 1022.6
20220807222111 67 51 0.0 4.0 0.00 0.00 0.00 24 1032.5
20220807222025 106 124 3.0 6.0 0.00 0.00 0.00 34 1022.6
20220807221631 67 51 0.0 4.0 0.00 0.00 0.00 24 1032.5
20220807221518 106 84 3.0 9.0 0.00 0.00 0.00 33 1022.7
20220807221131 67 51 0.0 4.0 0.00 0.00 0.00 24 1032.5
20220807221028 107 184 3.0 5.0 0.00 0.00 0.00 33 1022.8
20220807220706 67 51 0.0 4.0 0.00 0.00 0.00 24 1032.5
20220807220519 109 185 2.0 4.0 0.00 0.00 0.00 32 1022.8
20220807220216 67 51 0.0 4.0 0.00 0.00 0.00 24 1032.5
20220807220030 108 179 3.0 7.0 0.00 0.00 0.00 32 1022.8
20220807215741 67 51 0.0 4.0 0.00 0.00 0.00 24 1032.5
20220807215521 107 137 3.0 6.0 0.00 0.00 0.00 33 1022.8
20220807215316 67 51 0.0 4.0 0.00 0.00 0.00 24 1032.5
20220807215032 108 165 4.0 7.0 0.00 0.00 0.00 33 1022.9
20220807214816 67 51 0.0 4.0 0.00 0.00 0.00 24 1032.5
20220807214525 108 204 3.0 6.0 0.00 0.00 0.00 32 1023.0
20220807214401 67 51 0.0 4.0 0.00 0.00 0.00 24 1032.5
20220807214016 108 165 4.0 8.0 0.00 0.00 0.00 33 1023.0
20220807213911 67 51 0.0 4.0 0.00 0.00 0.00 24 1032.5
20220807213527 108 193 4.0 7.0 0.00 0.00 0.00 32 1023.2
20220807213426 67 51 0.0 4.0 0.00 0.00 0.00 24 1032.5
20220807213020 108 217 2.0 7.0 0.00 0.00 0.00 33 1023.2
20220807212941 67 51 0.0 4.0 0.00 0.00 0.00 24 1032.5
20220807212529 108 179 4.0 7.0 0.00 0.00 0.00 33 1023.3
20220807212456 67 51 0.0 4.0 0.00 0.00 0.00 24 1032.5
20220807212021 67 51 0.0 4.0 0.00 0.00 0.00 24 1032.5
20220807211546 67 51 0.0 4.0 0.00 0.00 0.00 24 1032.5
20220807211531 109 188 3.0 6.0 0.00 0.00 0.00 32 1023.5
20220807211106 67 51 0.0 4.0 0.00 0.00 0.00 24 1032.5
20220807211024 109 199 4.0 6.0 0.00 0.00 0.00 32 1023.8
20220807210616 67 51 0.0 4.0 0.00 0.00 0.00 24 1032.5
20220807210517 109 191 3.0 7.0 0.00 0.00 0.00 32 1023.8
20220807210216 67 51 0.0 4.0 0.00 0.00 0.00 24 1032.5
20220807210026 109 205 3.0 6.0 0.00 0.00 0.00 32 1023.8
20220807205726 67 51 0.0 4.0 0.00 0.00 0.00 24 1032.5
20220807205518 109 186 4.0 10.0 0.00 0.00 0.00 32 1023.9
20220807205231 67 51 0.0 4.0 0.00 0.00 0.00 24 1032.5
20220807205029 109 195 3.0 9.0 0.00 0.00 0.00 32 1023.9
20220807204746 67 51 0.0 4.0 0.00 0.00 0.00 24 1032.5
20220807204522 109 215 3.0 5.0 0.00 0.00 0.00 32 1024.0
20220807204316 67 51 0.0 4.0 0.00 0.00 0.00 24 1032.5
20220807204032 109 205 4.0 12.0 0.00 0.00 0.00 32 1024.0
20220807203846 67 51 0.0 4.0 0.00 0.00 0.00 24 1032.5
20220807203523 109 183 3.0 7.0 0.00 0.00 0.00 32 1024.2
20220807203436 67 51 0.0 4.0 0.00 0.00 0.00 24 1032.5
20220807203015 107 200 3.0 7.0 0.00 0.00 0.00 33 1024.2
20220807203001 67 51 0.0 4.0 0.00 0.00 0.00 24 1032.5
20220807202546 67 51 0.0 4.0 0.00 0.00 0.00 24 1032.5
20220807202527 109 139 5.0 8.0 0.00 0.00 0.00 31 1024.2
20220807202046 67 51 0.0 4.0 0.00 0.00 0.00 24 1032.5
20220807202019 108 191 3.0 7.0 0.00 0.00 0.00 32 1024.3
20220807201546 67 51 0.0 4.0 0.00 0.00 0.00 24 1032.5
20220807201528 108 141 3.0 7.0 0.00 0.00 0.00 32 1024.3
20220807201116 67 51 0.0 4.0 0.00 0.00 0.00 24 1032.5
20220807201020 110 219 4.0 8.0 0.00 0.00 0.00 30 1024.5
20220807200711 67 51 0.0 4.0 0.00 0.00 0.00 24 1032.5
20220807200524 111 210 4.0 8.0 0.00 0.00 0.00 30 1024.5
20220807200241 67 51 0.0 4.0 0.00 0.00 0.00 24 1032.5
20220807200022 110 218 2.0 5.0 0.00 0.00 0.00 30 1024.5
20220807195741 67 51 0.0 4.0 0.00 0.00 0.00 24 1032.5
20220807195521 111 195 2.0 5.0 0.00 0.00 0.00 30 1024.5
20220807195246 67 51 0.0 4.0 0.00 0.00 0.00 24 1032.5
20220807195019 111 179 2.0 4.0 0.00 0.00 0.00 31 1024.6
20220807194806 67 51 0.0 4.0 0.00 0.00 0.00 24 1032.5
20220807194517 110 166 1.0 4.0 0.00 0.00 0.00 30 1024.7
20220807194321 67 51 0.0 4.0 0.00 0.00 0.00 24 1032.5
20220807194015 109 215 2.0 6.0 0.00 0.00 0.00 31 1024.7
20220807193856 67 51 0.0 4.0 0.00 0.00 0.00 24 1032.5
20220807193519 108 213 1.0 3.0 0.00 0.00 0.00 32 1024.8
20220807193451 67 51 0.0 4.0 0.00 0.00 0.00 24 1032.5
20220807193029 104 180 0.0 2.0 0.00 0.00 0.00 36 1024.8
20220807192951 67 51 0.0 4.0 0.00 0.00 0.00 24 1032.5
20220807192522 101 0.0 0.0 0.00 0.00 0.00 39 1024.9
20220807192041 67 51 0.0 4.0 0.00 0.00 0.00 24 1032.5
20220807192032 99 0.0 0.0 0.00 0.00 0.00 40 1024.9
20220807191631 67 51 0.0 4.0 0.00 0.00 0.00 24 1032.5
20220807191525 100 90 0.0 1.0 0.00 0.00 0.00 37 1024.9